Time;durP1;ratioP1;P1;durP2;ratioP2;P2;SDS_P1;SDS_P2;PMS_P1;PMS_P2;Temp;Humidity;BMP_temperature;BMP_pressure;BME280_temperature;BME280_humidity;BME280_pressure;Samples;Min_cycle;Max_cycle;Signal;HPM_P1;HPM_P2
2022/10/07 00:00:51;;;;;;;7.60;2.55;;;;;;;13.36;100.00;101830.88;5031508;28;20337;-84
2022/10/07 00:03:18;;;;;;;2.42;2.10;;;;;;;13.29;100.00;101833.19;5032931;28;20032;-83
2022/10/07 00:05:44;;;;;;;4.05;2.45;;;;;;;13.27;100.00;101827.25;5034503;28;20025;-84
2022/10/07 00:08:09;;;;;;;4.85;2.15;;;;;;;13.27;100.00;101822.00;5037291;28;20353;-84
2022/10/07 00:10:39;;;;;;;3.60;1.83;;;;;;;13.24;100.00;101822.28;5036239;28;20068;-84
2022/10/07 00:13:06;;;;;;;2.60;1.85;;;;;;;13.23;100.00;101828.50;5040131;28;20037;-84
2022/10/07 00:15:31;;;;;;;4.20;2.10;;;;;;;13.21;100.00;101820.78;5036484;28;20021;-83
2022/10/07 00:17:57;;;;;;;2.72;2.20;;;;;;;13.18;100.00;101810.56;5040571;28;20037;-83
2022/10/07 00:20:22;;;;;;;6.82;2.20;;;;;;;13.15;100.00;101815.19;5042139;28;20572;-83
2022/10/07 00:22:47;;;;;;;9.85;2.50;;;;;;;13.13;100.00;101811.88;5028742;28;20029;-84
2022/10/07 00:25:13;;;;;;;5.15;2.45;;;;;;;13.13;100.00;101814.47;5032680;28;20022;-83
2022/10/07 00:27:38;;;;;;;5.47;2.25;;;;;;;13.15;100.00;101810.78;5044418;28;20089;-84
2022/10/07 00:30:04;;;;;;;4.43;2.03;;;;;;;13.18;100.00;101812.34;5038126;28;20045;-84
2022/10/07 00:32:29;;;;;;;2.08;1.75;;;;;;;13.20;100.00;101808.63;5039496;28;20048;-85
2022/10/07 00:34:55;;;;;;;5.72;2.10;;;;;;;13.18;100.00;101796.66;5030542;28;20025;-84
2022/10/07 00:37:20;;;;;;;3.90;2.03;;;;;;;13.19;100.00;101798.31;5032639;28;20036;-84
2022/10/07 00:39:45;;;;;;;6.97;1.95;;;;;;;13.15;100.00;101789.00;5030312;28;20141;-83
2022/10/07 00:42:12;;;;;;;3.55;1.70;;;;;;;13.12;100.00;101791.88;5030935;28;20563;-84
2022/10/07 00:44:45;;;;;;;3.92;1.95;;;;;;;13.10;100.00;101788.56;5030394;28;20033;-83
2022/10/07 00:47:12;;;;;;;3.10;1.73;;;;;;;13.07;100.00;101783.59;5018586;28;20029;-83
2022/10/07 00:50:01;;;;;;;4.40;1.45;;;;;;;13.05;100.00;101775.88;5045816;28;20083;-84
2022/10/07 00:52:29;;;;;;;4.20;2.25;;;;;;;13.03;100.00;101782.19;5043191;28;20111;-83
2022/10/07 00:54:56;;;;;;;4.32;2.03;;;;;;;13.04;100.00;101776.00;5031259;28;20438;-84
2022/10/07 00:57:25;;;;;;;5.03;1.88;;;;;;;13.04;100.00;101776.00;5018617;28;20036;-84
2022/10/07 00:59:54;;;;;;;8.48;2.15;;;;;;;13.01;100.00;101773.63;5029477;28;20366;-83
2022/10/07 01:02:22;;;;;;;2.83;1.40;;;;;;;13.04;100.00;101770.75;5042885;28;20039;-83
2022/10/07 01:04:49;;;;;;;3.75;1.45;;;;;;;13.03;100.00;101763.88;5031787;28;20033;-83
2022/10/07 01:07:17;;;;;;;2.67;1.48;;;;;;;13.00;100.00;101757.13;5011642;28;20064;-83
2022/10/07 01:09:42;;;;;;;2.05;1.48;;;;;;;13.03;100.00;101756.84;5029328;28;20108;-83
2022/10/07 01:12:22;;;;;;;5.40;1.60;;;;;;;13.02;100.00;101755.19;5045872;28;20029;-83
2022/10/07 01:15:08;;;;;;;4.60;2.00;;;;;;;13.01;100.00;101752.72;5039055;28;20469;-84
2022/10/07 01:17:46;;;;;;;4.05;2.05;;;;;;;13.00;100.00;101744.03;5031967;28;20033;-84
2022/10/07 01:20:28;;;;;;;5.15;1.85;;;;;;;12.98;100.00;101739.88;5023772;28;20029;-83
2022/10/07 01:23:18;;;;;;;4.13;1.73;;;;;;;12.96;100.00;101734.78;5026523;28;20041;-83
2022/10/07 01:25:59;;;;;;;5.63;1.77;;;;;;;12.94;100.00;101732.28;5015594;28;20393;-84
2022/10/07 01:28:38;;;;;;;4.97;1.52;;;;;;;12.92;100.00;101728.16;5028576;28;20426;-85
2022/10/07 01:31:07;;;;;;;5.38;1.75;;;;;;;12.89;100.00;101729.22;5032710;28;20029;-84
2022/10/07 01:33:34;;;;;;;5.00;1.90;;;;;;;12.91;100.00;101726.50;5037524;28;20037;-84
2022/10/07 01:36:25;;;;;;;10.18;1.85;;;;;;;12.90;100.00;101720.44;5040260;28;20029;-84
2022/10/07 01:38:55;;;;;;;5.22;1.90;;;;;;;12.93;100.00;101725.41;5044031;28;20103;-83
2022/10/07 01:41:22;;;;;;;6.03;1.75;;;;;;;12.90;100.00;101720.44;5012171;28;20064;-83
2022/10/07 01:43:51;;;;;;;2.42;1.60;;;;;;;12.93;100.00;101714.13;5028580;28;20072;-84
2022/10/07 01:46:21;;;;;;;3.75;1.73;;;;;;;12.99;100.00;101712.75;5031797;28;20686;-84
2022/10/07 01:48:47;;;;;;;3.35;1.92;;;;;;;12.96;100.00;101709.44;5028584;28;20037;-83
2022/10/07 01:51:15;;;;;;;3.85;1.70;;;;;;;12.92;100.00;101709.84;5019381;28;20025;-84
2022/10/07 01:54:26;;;;;;;5.30;1.50;;;;;;;12.89;100.00;101708.31;5030449;28;20030;-83
2022/10/07 01:57:03;;;;;;;4.72;1.38;;;;;;;12.93;100.00;101706.25;4935648;29;20039;-84
2022/10/07 02:00:03;;;;;;;3.50;1.38;;;;;;;12.91;100.00;101709.00;4927531;29;20113;-84
2022/10/07 02:03:03;;;;;;;5.03;1.50;;;;;;;12.87;100.00;101699.75;4938340;29;20043;-84
2022/10/07 02:05:47;;;;;;;6.32;1.48;;;;;;;12.83;100.00;101690.50;4940508;29;20039;-83
2022/10/07 02:08:22;;;;;;;3.72;2.00;;;;;;;12.87;100.00;101691.09;4935801;29;20054;-84
2022/10/07 02:11:00;;;;;;;2.17;1.27;;;;;;;12.86;100.00;101692.88;4930552;29;20035;-84
2022/10/07 02:13:35;;;;;;;3.90;1.15;;;;;;;12.83;100.00;101690.50;4938084;29;20661;-84
2022/10/07 02:16:34;;;;;;;2.35;1.33;;;;;;;12.82;100.00;101686.25;4943818;29;20070;-84
2022/10/07 02:19:06;;;;;;;3.38;1.65;;;;;;;12.81;100.00;101684.59;4938131;29;20436;-84
2022/10/07 02:21:36;;;;;;;4.00;1.20;;;;;;;12.79;100.00;101686.50;4931902;29;20090;-84
2022/10/07 02:24:02;;;;;;;5.93;1.58;;;;;;;12.74;100.00;101693.94;4941467;28;20031;-84
2022/10/07 02:26:31;;;;;;;3.63;1.23;;;;;;;12.75;100.00;101684.28;4954373;28;20058;-84
2022/10/07 02:29:02;;;;;;;4.68;1.33;;;;;;;12.76;100.00;101686.75;5032511;28;20105;-84
2022/10/07 02:31:30;;;;;;;3.75;1.52;;;;;;;12.74;100.00;101686.09;5032724;28;20032;-84
2022/10/07 02:33:57;;;;;;;7.43;1.15;;;;;;;12.77;100.00;101683.19;5036294;28;20035;-84
2022/10/07 02:36:33;;;;;;;5.53;1.38;;;;;;;12.77;100.00;101672.72;5044931;28;20036;-84
2022/10/07 02:39:00;;;;;;;5.93;1.30;;;;;;;12.74;100.00;101667.78;5046075;28;20552;-84
2022/10/07 02:42:04;;;;;;;4.63;1.55;;;;;;;12.73;100.00;101676.56;5047824;28;20098;-83
2022/10/07 02:44:33;;;;;;;4.80;1.27;;;;;;;12.84;100.00;101673.84;4998858;28;20431;-83
2022/10/07 02:47:05;;;;;;;6.00;1.30;;;;;;;12.90;100.00;101675.97;5036313;28;20037;-83
2022/10/07 02:49:36;;;;;;;4.45;1.42;;;;;;;12.90;100.00;101667.28;5038264;28;20036;-84
2022/10/07 02:52:06;;;;;;;4.65;1.17;;;;;;;12.89;100.00;101674.31;5042222;28;20091;-84
2022/10/07 02:54:38;;;;;;;6.28;0.88;;;;;;;12.86;100.00;101677.19;5032628;28;20107;-83
2022/10/07 02:57:04;;;;;;;5.72;1.20;;;;;;;12.77;100.00;101670.09;5031917;28;20087;-83
2022/10/07 02:59:32;;;;;;;3.33;1.10;;;;;;;12.75;100.00;101669.44;5046623;28;20025;-82
2022/10/07 03:02:01;;;;;;;2.13;0.98;;;;;;;12.77;100.00;101679.72;5031611;28;20080;-83
2022/10/07 03:04:27;;;;;;;4.72;1.10;;;;;;;12.81;100.00;101674.13;5035234;28;20405;-84
2022/10/07 03:06:53;;;;;;;3.90;1.00;;;;;;;12.78;100.00;101666.53;5034113;28;20037;-84
2022/10/07 03:09:19;;;;;;;3.03;1.02;;;;;;;12.75;100.00;101669.44;5036144;28;20044;-82
2022/10/07 03:11:44;;;;;;;3.08;1.02;;;;;;;12.74;100.00;101665.16;5031134;28;20028;-82
2022/10/07 03:14:09;;;;;;;5.57;1.33;;;;;;;12.75;100.00;101669.44;5034347;28;20111;-82
2022/10/07 03:16:35;;;;;;;5.38;1.10;;;;;;;12.67;100.00;101664.00;5033941;28;20071;-83
2022/10/07 03:19:01;;;;;;;4.70;1.35;;;;;;;12.65;100.00;101668.53;5035179;28;20044;-82
2022/10/07 03:21:26;;;;;;;3.58;1.27;;;;;;;12.65;100.00;101665.94;5035742;28;20083;-82
2022/10/07 03:23:53;;;;;;;4.20;1.10;;;;;;;12.64;100.00;101664.28;5034995;28;20040;-83
2022/10/07 03:26:18;;;;;;;5.25;1.08;;;;;;;12.65;100.00;101660.69;5037672;28;20037;-83
2022/10/07 03:28:44;;;;;;;6.95;1.15;;;;;;;12.71;100.00;101662.81;5036959;28;20030;-82
2022/10/07 03:31:13;;;;;;;2.58;1.02;;;;;;;12.77;100.00;101659.63;5039540;28;20380;-83
2022/10/07 03:33:38;;;;;;;3.15;1.20;;;;;;;12.79;100.00;101649.88;5036962;28;20033;-82
2022/10/07 03:36:04;;;;;;;7.18;1.10;;;;;;;12.76;100.00;101649.34;5043806;28;20031;-82
2022/10/07 03:38:30;;;;;;;2.53;0.75;;;;;;;12.77;100.00;101650.97;5036035;28;20041;-82
2022/10/07 03:40:56;;;;;;;2.85;0.88;;;;;;;12.79;100.00;101655.09;5038516;28;20029;-83
2022/10/07 03:43:22;;;;;;;7.10;1.40;;;;;;;12.84;100.00;101658.16;5039131;28;20033;-82
2022/10/07 03:45:50;;;;;;;8.48;1.35;;;;;;;12.88;100.00;101659.56;5049634;28;20033;-82
2022/10/07 03:48:16;;;;;;;5.43;1.20;;;;;;;12.91;100.00;101646.22;5048929;28;20025;-83
2022/10/07 03:50:51;;;;;;;8.40;1.00;;;;;;;12.96;100.00;101645.84;5030028;28;20060;-83
2022/10/07 03:53:17;;;;;;;5.32;1.27;;;;;;;13.02;100.00;101644.50;5029425;28;20064;-82
2022/10/07 03:55:44;;;;;;;5.05;1.20;;;;;;;13.10;100.00;101647.28;5029581;28;20470;-83
2022/10/07 03:58:11;;;;;;;4.75;0.90;;;;;;;13.13;100.00;101636.56;5029543;28;20108;-83
2022/10/07 04:00:37;;;;;;;3.55;0.88;;;;;;;13.15;100.00;101639.88;5044576;28;20381;-82
2022/10/07 04:03:04;;;;;;;3.92;0.80;;;;;;;13.13;100.00;101637.38;5049465;28;20098;-82
2022/10/07 04:05:30;;;;;;;3.20;1.20;;;;;;;13.12;100.00;101637.50;5048316;28;20033;-82
2022/10/07 04:07:55;;;;;;;5.20;0.90;;;;;;;13.13;100.00;101631.31;5049199;28;20029;-82
2022/10/07 04:10:21;;;;;;;4.07;1.25;;;;;;;13.15;100.00;101627.59;5039382;28;20481;-81
2022/10/07 04:12:50;;;;;;;5.25;1.08;;;;;;;13.15;100.00;101625.00;5044752;28;20039;-82
2022/10/07 04:15:16;;;;;;;9.48;1.08;;;;;;;13.14;100.00;101627.75;5029552;28;20022;-82
2022/10/07 04:17:43;;;;;;;3.00;1.23;;;;;;;13.20;100.00;101622.84;5029492;28;20029;-82
2022/10/07 04:20:09;;;;;;;2.47;0.70;;;;;;;13.31;100.00;101619.25;5039539;28;20082;-82
2022/10/07 04:22:35;;;;;;;3.30;0.70;;;;;;;13.39;100.00;101619.41;5047791;28;20029;-82
2022/10/07 04:27:51;;;;;;;7.93;0.80;;;;;;;13.56;100.00;101620.56;5048941;28;20039;-82
2022/10/07 04:30:16;;;;;;;2.42;1.08;;;;;;;13.74;100.00;101616.28;5040806;28;20202;-82
2022/10/07 04:32:42;;;;;;;6.10;1.20;;;;;;;14.14;100.00;101613.53;5029458;28;20113;-82
2022/10/07 04:35:08;;;;;;;2.67;0.80;;;;;;;14.16;100.00;101616.84;5037293;28;20048;-82
2022/10/07 04:37:33;;;;;;;3.53;1.23;;;;;;;14.06;100.00;101616.03;5048844;28;20469;-82
2022/10/07 04:39:59;;;;;;;3.17;0.82;;;;;;;13.95;100.00;101609.13;5046985;28;20127;-82
2022/10/07 04:45:08;;;;;;;4.20;1.05;;;;;;;13.74;100.00;101618.91;5050533;28;20159;-82
2022/10/07 04:47:34;;;;;;;4.32;0.90;;;;;;;13.66;100.00;101621.41;5048585;28;20037;-82
2022/10/07 04:50:00;;;;;;;5.85;1.30;;;;;;;13.57;100.00;101615.19;5046177;28;20033;-82
2022/10/07 04:52:26;;;;;;;5.47;1.02;;;;;;;13.49;100.00;101622.06;5048259;28;20569;-82
2022/10/07 04:54:52;;;;;;;4.10;1.17;;;;;;;13.47;100.00;101621.38;5048298;28;20024;-82
2022/10/07 04:57:17;;;;;;;3.50;1.10;;;;;;;13.40;100.00;101618.47;5048287;28;20050;-82
2022/10/07 04:59:43;;;;;;;2.53;0.80;;;;;;;13.33;100.00;101617.34;5047101;28;20055;-83
2022/10/07 05:02:08;;;;;;;6.95;1.10;;;;;;;13.26;100.00;101616.22;5030140;28;20053;-82
2022/10/07 05:04:34;;;;;;;3.22;1.20;;;;;;;13.21;100.00;101623.66;5028425;28;20045;-83
2022/10/07 05:06:59;;;;;;;7.65;1.63;;;;;;;13.14;100.00;101618.09;5048136;28;20029;-82
2022/10/07 05:09:24;;;;;;;3.35;0.95;;;;;;;13.15;100.00;101621.53;5047879;28;20036;-82
2022/10/07 05:11:54;;;;;;;4.28;1.23;;;;;;;13.16;100.00;101626.69;5035788;28;20025;-82
2022/10/07 05:14:20;;;;;;;3.67;1.05;;;;;;;13.15;100.00;101617.13;5030605;28;20061;-82
2022/10/07 05:16:50;;;;;;;3.72;1.33;;;;;;;13.12;100.00;101619.19;5034070;28;20380;-82
2022/10/07 05:19:16;;;;;;;2.42;1.10;;;;;;;13.19;100.00;101615.13;5048270;28;20039;-82
2022/10/07 05:21:42;;;;;;;5.65;1.10;;;;;;;13.23;100.00;101613.88;5046366;28;20033;-82
2022/10/07 05:24:07;;;;;;;4.88;1.05;;;;;;;13.29;100.00;101622.00;5047796;28;20064;-82
2022/10/07 05:26:33;;;;;;;4.32;1.38;;;;;;;13.27;100.00;101618.69;5047967;28;20025;-82
2022/10/07 05:28:58;;;;;;;3.63;1.15;;;;;;;13.20;100.00;101617.59;5048104;28;20344;-82
2022/10/07 05:31:25;;;;;;;4.57;1.27;;;;;;;13.12;100.00;101620.03;5038730;28;20028;-82
2022/10/07 05:33:50;;;;;;;5.75;1.65;;;;;;;13.08;100.00;101613.41;5029373;28;20033;-82
2022/10/07 05:36:17;;;;;;;6.13;1.55;;;;;;;13.04;100.00;101611.19;5047966;28;20090;-81
2022/10/07 05:38:43;;;;;;;7.68;1.30;;;;;;;13.09;100.00;101616.84;5047928;28;20032;-82
2022/10/07 05:41:11;;;;;;;2.50;1.65;;;;;;;13.20;100.00;101616.78;5046666;28;20086;-82
2022/10/07 05:43:40;;;;;;;6.10;1.25;;;;;;;13.19;100.00;101610.72;5042254;28;20040;-82
2022/10/07 05:46:09;;;;;;;4.13;1.55;;;;;;;13.19;100.00;101617.72;5047389;28;20032;-82
2022/10/07 05:48:35;;;;;;;3.30;1.35;;;;;;;13.21;100.00;101618.44;5047532;28;20025;-82
2022/10/07 05:51:01;;;;;;;4.28;1.77;;;;;;;13.20;100.00;101622.00;5046671;28;20032;-82
2022/10/07 05:53:28;;;;;;;4.32;1.65;;;;;;;13.21;100.00;101621.03;5047338;28;20045;-81
2022/10/07 05:55:54;;;;;;;3.78;1.20;;;;;;;13.25;100.00;101617.19;5029720;28;20026;-81
2022/10/07 05:58:20;;;;;;;3.40;1.33;;;;;;;13.28;100.00;101622.13;5027914;28;20045;-81
2022/10/07 06:01:16;;;;;;;8.38;1.30;;;;;;;13.32;100.00;101623.53;5030766;28;20095;-82
2022/10/07 06:03:43;;;;;;;8.63;1.70;;;;;;;13.38;100.00;101630.84;5042196;28;20105;-82
2022/10/07 06:06:09;;;;;;;4.85;1.73;;;;;;;13.43;100.00;101623.41;5040055;28;20038;-82
2022/10/07 06:08:35;;;;;;;3.20;1.20;;;;;;;13.50;100.00;101626.34;5036754;28;20029;-82
2022/10/07 06:13:55;;;;;;;3.92;1.50;;;;;;;13.66;100.00;101629.25;5012464;28;20378;-82
2022/10/07 06:16:23;;;;;;;3.38;1.50;;;;;;;13.76;100.00;101626.63;5031439;28;20037;-82
2022/10/07 06:18:51;;;;;;;4.57;1.98;;;;;;;13.88;100.00;101625.53;5031656;28;20095;-82
2022/10/07 06:21:18;;;;;;;5.25;1.65;;;;;;;14.01;100.00;101633.13;5035914;28;20108;-82
2022/10/07 06:23:50;;;;;;;5.28;1.80;;;;;;;14.10;100.00;101627.88;5044102;28;20025;-82
2022/10/07 06:26:15;;;;;;;5.30;2.00;;;;;;;14.20;100.00;101628.69;5042466;28;20035;-82
2022/10/07 06:28:41;;;;;;;5.28;2.00;;;;;;;14.30;100.00;101631.28;5035252;28;20132;-83
2022/10/07 06:31:12;;;;;;;4.10;1.70;;;;;;;14.46;100.00;101621.09;5033488;28;20056;-82
2022/10/07 06:33:39;;;;;;;4.50;1.50;;;;;;;14.63;100.00;101626.56;5050988;28;20047;-82
2022/10/07 06:36:06;;;;;;;7.63;1.75;;;;;;;14.79;100.00;101624.97;5050670;28;20032;-83
2022/10/07 06:38:32;;;;;;;5.95;1.25;;;;;;;14.94;100.00;101630.59;5050121;28;20029;-82
2022/10/07 06:41:00;;;;;;;5.03;1.00;;;;;;;15.05;100.00;101621.72;5037269;28;20037;-82
2022/10/07 06:43:29;;;;;;;6.47;1.10;;;;;;;15.10;100.00;101627.34;5041740;28;20380;-82
2022/10/07 06:45:57;;;;;;;3.72;1.50;;;;;;;15.14;100.00;101626.06;5031366;28;20033;-82
2022/10/07 06:48:23;;;;;;;5.53;1.70;;;;;;;15.23;100.00;101617.31;5035065;28;20072;-83
2022/10/07 06:50:50;;;;;;;6.00;1.15;;;;;;;15.39;100.00;101622.75;5034899;28;20099;-83
2022/10/07 06:53:16;;;;;;;7.43;1.70;;;;;;;15.51;100.00;101626.81;5042646;28;20056;-82
2022/10/07 06:55:41;;;;;;;4.85;1.50;;;;;;;15.60;100.00;101622.50;5030055;28;20422;-82
2022/10/07 06:58:07;;;;;;;7.10;1.80;;;;;;;15.65;100.00;101622.03;5020639;28;20112;-83
2022/10/07 07:00:32;;;;;;;8.32;1.42;;;;;;;15.68;100.00;101616.50;5044389;28;20025;-83
2022/10/07 07:03:00;;;;;;;8.18;1.30;;;;;;;15.73;100.00;101620.31;5047614;28;20076;-82
2022/10/07 07:05:37;;;;;;;3.67;0.93;;;;;;;15.82;100.00;101619.44;5047807;28;20087;-82
2022/10/07 07:08:03;;;;;;;4.80;1.60;;;;;;;15.89;100.00;101625.75;5035508;28;21913;-82
2022/10/07 07:10:28;;;;;;;4.28;1.20;;;;;;;15.95;100.00;101618.22;5048871;28;20503;-83
2022/10/07 07:12:54;;;;;;;4.28;1.23;;;;;;;16.03;100.00;101624.38;5036626;28;20029;-83
2022/10/07 07:15:20;;;;;;;3.33;0.90;;;;;;;16.16;100.00;101624.78;5047072;28;20030;-82
2022/10/07 07:17:46;;;;;;;4.43;0.77;;;;;;;16.23;100.00;101617.94;5049137;28;20021;-83
2022/10/07 07:20:13;;;;;;;4.15;0.80;;;;;;;16.36;100.00;101621.97;5030044;28;20071;-83
2022/10/07 07:22:39;;;;;;;4.38;1.30;;;;;;;16.47;100.00;101619.94;5024099;28;20370;-83
2022/10/07 07:25:05;;;;;;;5.95;0.93;;;;;;;16.56;100.00;101612.88;5047281;28;20029;-80
2022/10/07 07:27:31;;;;;;;12.40;1.40;;;;;;;16.65;100.00;101625.16;5049009;28;20324;-81
2022/10/07 07:29:57;;;;;;;4.20;1.10;;;;;;;16.74;100.00;101623.38;5048893;28;20045;-81
2022/10/07 07:32:23;;;;;;;6.10;1.17;;;;;;;16.81;100.00;101621.78;5047226;28;20029;-80
2022/10/07 07:34:48;;;;;;;3.17;0.65;;;;;;;16.86;100.00;101625.59;5042783;28;20104;-80
2022/10/07 07:37:15;;;;;;;3.72;0.75;;;;;;;16.97;100.00;101621.03;5037441;28;20033;-80
2022/10/07 07:39:41;;;;;;;3.92;0.90;;;;;;;17.01;100.00;101627.63;5035171;28;20037;-81
2022/10/07 07:42:07;;;;;;;4.43;1.10;;;;;;;17.07;100.00;101624.34;5045622;28;20214;-80
2022/10/07 07:44:35;;;;;;;4.22;0.60;;;;;;;17.14;100.00;101622.72;5031368;28;20304;-81
2022/10/07 07:47:01;;;;;;;2.67;0.45;;;;;;;17.29;100.00;101623.78;5029588;28;20021;-80
2022/10/07 07:49:30;;;;;;;1.67;0.70;;;;;;;17.38;100.00;101625.44;5047709;28;20047;-80
2022/10/07 07:51:57;;;;;;;4.85;0.60;;;;;;;17.44;100.00;101616.09;5048261;28;20580;-80
2022/10/07 07:54:25;;;;;;;5.43;0.70;;;;;;;17.47;100.00;101619.22;5038902;28;20044;-80
2022/10/07 07:56:52;;;;;;;2.85;0.30;;;;;;;17.50;100.00;101610.97;5033932;28;20021;-80
2022/10/07 07:59:18;;;;;;;5.28;0.77;;;;;;;17.49;100.00;101611.94;5029480;28;20033;-80
2022/10/07 08:01:44;;;;;;;6.80;0.40;;;;;;;17.53;100.00;101610.66;5036622;28;20519;-80
2022/10/07 08:04:10;;;;;;;1.95;0.40;;;;;;;17.59;100.00;101611.81;5034024;28;20034;-81
2022/10/07 08:06:35;;;;;;;6.13;0.63;;;;;;;17.65;100.00;101610.34;5032152;28;20227;-80
2022/10/07 08:09:01;;;;;;;3.90;0.55;;;;;;;17.71;100.00;101609.72;5037532;28;20122;-79
2022/10/07 08:11:27;;;;;;;3.35;0.60;;;;;;;17.79;100.00;101612.38;5045206;28;20037;-81
2022/10/07 08:13:54;;;;;;;3.65;1.02;;;;;;;17.84;100.00;101610.06;5044591;28;20287;-81
2022/10/07 08:16:22;;;;;;;3.63;0.82;;;;;;;17.90;100.00;101609.41;5045806;28;20622;-80
2022/10/07 08:18:49;;;;;;;2.10;0.50;;;;;;;17.96;100.00;101607.94;5046767;28;20104;-80
2022/10/07 08:21:18;;;;;;;1.85;0.35;;;;;;;18.00;100.00;101612.69;5043691;28;20052;-80
2022/10/07 08:23:46;;;;;;;5.38;0.30;;;;;;;18.15;100.00;101603.13;5038654;28;20029;-79
2022/10/07 08:26:12;;;;;;;3.00;0.40;;;;;;;18.31;100.00;101609.38;5047863;28;20021;-79
2022/10/07 08:28:38;;;;;;;2.70;0.40;;;;;;;19.26;96.49;101607.59;5048641;28;20417;-79
2022/10/07 08:31:05;;;;;;;5.78;0.43;;;;;;;19.29;94.31;101597.50;5032449;28;20025;-79
2022/10/07 08:33:33;;;;;;;2.95;0.65;;;;;;;18.79;96.99;101596.09;5048772;28;20082;-80
2022/10/07 08:36:00;;;;;;;3.58;0.43;;;;;;;18.67;98.17;101594.81;5047921;28;20029;-79
2022/10/07 08:38:36;;;;;;;5.30;0.40;;;;;;;19.08;92.13;101594.63;5036172;28;20026;-80
2022/10/07 08:41:08;;;;;;;2.83;0.40;;;;;;;19.09;92.25;101588.34;5032353;28;20029;-80
2022/10/07 08:43:40;;;;;;;4.20;0.40;;;;;;;19.01;94.35;101591.03;5043599;28;20028;-80
2022/10/07 08:46:11;;;;;;;3.85;0.55;;;;;;;19.01;95.41;101588.38;5046508;28;20461;-80
2022/10/07 08:48:37;;;;;;;3.15;0.40;;;;;;;19.07;94.15;101582.41;5040775;28;20753;-78
2022/10/07 08:51:18;;;;;;;0.93;0.35;;;;;;;19.05;94.65;101579.13;5032000;28;20036;-80
2022/10/07 08:53:48;;;;;;;1.20;0.65;;;;;;;19.04;95.09;101577.47;5029835;28;20116;-80
2022/10/07 08:56:16;;;;;;;6.97;0.25;;;;;;;19.03;95.56;101565.25;5043021;28;20039;-79
2022/10/07 08:59:09;;;;;;;3.60;0.63;;;;;;;19.05;96.15;101572.03;5048396;28;20477;-79
2022/10/07 09:01:40;;;;;;;0.85;0.30;;;;;;;19.03;96.09;101567.91;5036648;28;20037;-80
2022/10/07 09:04:34;;;;;;;2.03;0.50;;;;;;;19.06;96.34;101570.19;5047988;28;20021;-80
2022/10/07 09:07:18;;;;;;;2.58;0.32;;;;;;;19.02;96.54;101560.97;5033120;28;20508;-80
2022/10/07 09:09:55;;;;;;;3.45;0.30;;;;;;;19.00;95.53;101565.59;5028128;28;20026;-80
2022/10/07 09:12:33;;;;;;;2.60;0.47;;;;;;;19.10;94.50;101558.28;5034417;28;20041;-79
2022/10/07 09:15:01;;;;;;;4.07;0.50;;;;;;;19.17;94.11;101553.97;5027692;28;20025;-80
2022/10/07 09:17:42;;;;;;;5.10;0.40;;;;;;;19.20;93.54;101548.34;5041665;28;20033;-80
2022/10/07 09:20:16;;;;;;;2.42;0.65;;;;;;;19.21;92.46;101544.69;5046158;28;20143;-80
2022/10/07 09:22:49;;;;;;;4.18;0.57;;;;;;;19.25;94.32;101545.19;5016933;28;20028;-80
2022/10/07 09:25:20;;;;;;;4.60;0.30;;;;;;;19.33;93.56;101545.94;5031914;28;20531;-80
2022/10/07 09:27:45;;;;;;;2.03;0.30;;;;;;;19.36;93.41;101540.31;5047229;28;20036;-80
2022/10/07 09:30:15;;;;;;;2.75;0.75;;;;;;;19.37;91.88;101544.59;5035960;28;20041;-81
2022/10/07 09:32:45;;;;;;;3.03;0.40;;;;;;;19.40;91.73;101546.84;5028355;28;20028;-80
2022/10/07 09:35:16;;;;;;;3.78;0.32;;;;;;;19.45;90.93;101544.50;5027923;28;20473;-80
2022/10/07 09:38:02;;;;;;;2.15;0.50;;;;;;;19.47;89.57;101539.88;5029498;28;20149;-80
2022/10/07 09:40:27;;;;;;;4.00;0.35;;;;;;;19.52;90.10;101534.09;5037899;28;20115;-81
2022/10/07 09:42:53;;;;;;;4.97;0.30;;;;;;;19.57;89.44;101536.22;5028061;28;20490;-80
2022/10/07 09:45:30;;;;;;;1.83;0.20;;;;;;;19.59;87.88;101532.38;5030332;28;20037;-79
2022/10/07 09:47:58;;;;;;;1.55;0.60;;;;;;;19.61;88.67;101532.22;5047454;28;20025;-81
2022/10/07 09:50:38;;;;;;;1.58;0.20;;;;;;;19.58;88.45;101535.22;5035911;28;20044;-81
2022/10/07 09:53:25;;;;;;;1.27;0.20;;;;;;;19.57;84.48;101528.28;5043085;28;20045;-80
2022/10/07 09:55:52;;;;;;;3.28;0.40;;;;;;;19.56;86.52;101530.09;5033446;28;20638;-80
2022/10/07 09:58:30;;;;;;;1.08;0.30;;;;;;;19.51;83.77;101524.53;5029946;28;20041;-81
2022/10/07 10:00:58;;;;;;;1.05;0.20;;;;;;;19.62;85.21;101526.75;5028370;28;20033;-80
2022/10/07 10:03:32;;;;;;;2.38;0.20;;;;;;;19.61;82.35;101521.63;5031080;28;20060;-80
2022/10/07 10:06:03;;;;;;;1.50;0.52;;;;;;;19.53;85.17;101519.88;5030016;28;20087;-80
2022/10/07 10:08:36;;;;;;;4.43;0.20;;;;;;;19.58;84.91;101516.69;5036989;28;20029;-81
2022/10/07 10:11:24;;;;;;;1.05;0.20;;;;;;;19.68;84.76;101518.09;5043497;28;20025;-81
2022/10/07 10:13:50;;;;;;;0.57;0.20;;;;;;;19.76;85.50;101511.94;5038223;28;20032;-79
2022/10/07 10:16:39;;;;;;;3.10;0.20;;;;;;;19.79;82.56;101516.88;5040395;28;20033;-80
2022/10/07 10:19:20;;;;;;;1.30;0.20;;;;;;;19.84;81.49;101511.84;5043043;28;20094;-80
2022/10/07 10:21:51;;;;;;;1.33;0.30;;;;;;;19.82;83.98;101513.88;5047351;28;20037;-81
2022/10/07 10:26:24;;;;;;;1.10;0.30;;;;;;;19.98;84.31;101513.69;5048775;28;20698;-80
2022/10/07 10:27:34;;;;;;;4.95;0.40;;;;;;;20.11;81.13;101500.66;5021192;28;20045;-80
2022/10/07 10:30:04;;;;;;;1.33;0.22;;;;;;;20.11;82.75;101502.47;5036415;28;20030;-80
2022/10/07 10:32:42;;;;;;;0.77;0.20;;;;;;;20.13;81.37;101495.19;5043374;28;20048;-80
2022/10/07 10:35:28;;;;;;;2.60;0.20;;;;;;;20.12;79.99;101498.84;5046217;28;20037;-81
2022/10/07 10:38:18;;;;;;;1.48;0.22;;;;;;;20.17;80.30;101497.28;5040085;28;20037;-80
2022/10/07 10:41:04;;;;;;;1.80;0.20;;;;;;;20.21;81.10;101487.97;5028390;28;20120;-80
2022/10/07 10:43:46;;;;;;;1.00;0.30;;;;;;;20.27;81.50;101481.13;5040760;28;20098;-80
2022/10/07 10:46:47;;;;;;;3.58;0.30;;;;;;;20.28;79.41;101481.97;5048637;28;20093;-80
2022/10/07 10:49:37;;;;;;;1.40;0.28;;;;;;;20.26;82.38;101476.03;5038375;28;20045;-80
2022/10/07 10:52:20;;;;;;;1.27;0.30;;;;;;;20.27;84.04;101481.13;5050599;28;20132;-80
2022/10/07 10:54:58;;;;;;;3.40;0.30;;;;;;;20.22;83.48;101472.94;5050610;28;20183;-80
2022/10/07 10:57:44;;;;;;;2.15;0.57;;;;;;;20.26;80.00;101465.44;5048835;28;20673;-80
2022/10/07 11:00:21;;;;;;;4.13;0.30;;;;;;;20.32;80.09;101451.47;5040118;28;20073;-80
2022/10/07 11:03:16;;;;;;;3.17;0.50;;;;;;;20.43;79.29;101458.97;5041150;28;20053;-80
2022/10/07 11:05:42;;;;;;;3.00;0.20;;;;;;;20.51;79.23;101453.56;5020686;28;20096;-79
2022/10/07 11:08:20;;;;;;;1.02;0.30;;;;;;;20.40;79.40;101454.84;5031104;28;20449;-80
2022/10/07 11:10:50;;;;;;;2.53;0.20;;;;;;;20.50;79.62;101443.97;5037468;28;20045;-80
2022/10/07 11:13:45;;;;;;;3.25;0.20;;;;;;;20.63;77.80;101438.84;5042064;28;20025;-80
2022/10/07 11:16:11;;;;;;;2.50;0.28;;;;;;;20.80;78.73;101440.22;5034979;28;20044;-82
2022/10/07 11:18:45;;;;;;;1.63;0.20;;;;;;;20.84;77.45;101435.38;5047468;28;20408;-80
2022/10/07 11:21:17;;;;;;;2.88;0.30;;;;;;;20.82;79.50;101434.75;5036040;28;20519;-80
2022/10/07 11:23:50;;;;;;;3.95;0.25;;;;;;;20.96;77.92;101425.13;5043414;28;20025;-79
2022/10/07 11:26:21;;;;;;;3.30;0.50;;;;;;;21.25;76.31;101417.06;5032229;28;20052;-80
2022/10/07 11:28:49;;;;;;;3.85;0.40;;;;;;;21.30;75.67;101411.97;5044468;28;20033;-80
2022/10/07 11:31:27;;;;;;;2.45;0.52;;;;;;;21.35;74.51;101417.53;5032837;28;20455;-81
2022/10/07 11:34:35;;;;;;;2.85;0.30;;;;;;;21.30;72.97;101411.97;5044804;28;20056;-80
2022/10/07 11:37:15;;;;;;;1.45;0.30;;;;;;;21.15;74.34;101408.59;4943250;29;20077;-80
2022/10/07 11:39:40;;;;;;;3.40;0.30;;;;;;;21.30;75.60;101400.56;4947381;29;20047;-80
2022/10/07 11:42:20;;;;;;;1.15;0.38;;;;;;;21.43;74.09;101393.53;4949107;29;20027;-81
2022/10/07 11:45:05;;;;;;;4.03;0.45;;;;;;;21.30;75.54;101395.25;4940373;29;20046;-81